sensor_id;sensor_type;location;lat;lon;timestamp;P1;durP1;ratioP1;P2;durP2;ratioP2
74677;SDS011;67324;56.326;43.982;2023-04-07T00:00:03;6.07;;;4.07;;
74677;SDS011;67324;56.326;43.982;2023-04-07T00:02:37;6.47;;;3.85;;
74677;SDS011;67324;56.326;43.982;2023-04-07T00:05:03;4.72;;;3.72;;
74677;SDS011;67324;56.326;43.982;2023-04-07T00:07:29;4.68;;;3.65;;
74677;SDS011;67324;56.326;43.982;2023-04-07T00:09:55;5.97;;;3.83;;
74677;SDS011;67324;56.326;43.982;2023-04-07T00:12:21;5.93;;;4.03;;
74677;SDS011;67324;56.326;43.982;2023-04-07T00:14:47;5.85;;;4.03;;
74677;SDS011;67324;56.326;43.982;2023-04-07T00:17:12;6.28;;;4.05;;
74677;SDS011;67324;56.326;43.982;2023-04-07T00:19:38;5.32;;;3.90;;
74677;SDS011;67324;56.326;43.982;2023-04-07T00:22:04;4.53;;;3.67;;
74677;SDS011;67324;56.326;43.982;2023-04-07T00:24:30;5.55;;;3.78;;
74677;SDS011;67324;56.326;43.982;2023-04-07T00:26:56;4.43;;;3.67;;
74677;SDS011;67324;56.326;43.982;2023-04-07T00:29:22;4.65;;;3.72;;
74677;SDS011;67324;56.326;43.982;2023-04-07T00:31:48;6.25;;;4.00;;
74677;SDS011;67324;56.326;43.982;2023-04-07T00:34:14;6.53;;;4.00;;
74677;SDS011;67324;56.326;43.982;2023-04-07T00:36:40;5.55;;;4.10;;
74677;SDS011;67324;56.326;43.982;2023-04-07T00:39:06;4.95;;;3.60;;
74677;SDS011;67324;56.326;43.982;2023-04-07T00:41:33;4.65;;;3.60;;
74677;SDS011;67324;56.326;43.982;2023-04-07T00:44:18;4.55;;;3.60;;
74677;SDS011;67324;56.326;43.982;2023-04-07T00:46:45;4.68;;;3.75;;
74677;SDS011;67324;56.326;43.982;2023-04-07T00:49:12;5.90;;;4.10;;
74677;SDS011;67324;56.326;43.982;2023-04-07T00:51:38;4.65;;;3.75;;
74677;SDS011;67324;56.326;43.982;2023-04-07T00:54:04;4.65;;;3.53;;
74677;SDS011;67324;56.326;43.982;2023-04-07T00:56:30;4.90;;;3.70;;
74677;SDS011;67324;56.326;43.982;2023-04-07T00:58:57;4.82;;;3.55;;
74677;SDS011;67324;56.326;43.982;2023-04-07T01:01:50;6.18;;;3.90;;
74677;SDS011;67324;56.326;43.982;2023-04-07T01:07:17;5.50;;;3.85;;
74677;SDS011;67324;56.326;43.982;2023-04-07T01:10:02;4.70;;;3.47;;
74677;SDS011;67324;56.326;43.982;2023-04-07T01:12:56;4.85;;;3.75;;
74677;SDS011;67324;56.326;43.982;2023-04-07T01:15:32;5.43;;;3.85;;
74677;SDS011;67324;56.326;43.982;2023-04-07T01:18:05;4.30;;;3.55;;
74677;SDS011;67324;56.326;43.982;2023-04-07T01:20:37;4.63;;;3.65;;
74677;SDS011;67324;56.326;43.982;2023-04-07T01:23:25;4.63;;;3.50;;
74677;SDS011;67324;56.326;43.982;2023-04-07T01:26:30;4.60;;;3.53;;
74677;SDS011;67324;56.326;43.982;2023-04-07T01:31:59;4.22;;;3.30;;
74677;SDS011;67324;56.326;43.982;2023-04-07T01:34:27;5.22;;;3.80;;
74677;SDS011;67324;56.326;43.982;2023-04-07T01:36:56;4.93;;;3.50;;
74677;SDS011;67324;56.326;43.982;2023-04-07T01:39:25;5.15;;;3.75;;
74677;SDS011;67324;56.326;43.982;2023-04-07T01:41:52;5.55;;;3.38;;
74677;SDS011;67324;56.326;43.982;2023-04-07T01:44:19;4.30;;;3.70;;
74677;SDS011;67324;56.326;43.982;2023-04-07T01:46:45;4.70;;;3.42;;
74677;SDS011;67324;56.326;43.982;2023-04-07T01:49:12;4.35;;;3.28;;
74677;SDS011;67324;56.326;43.982;2023-04-07T01:51:40;4.32;;;3.28;;
74677;SDS011;67324;56.326;43.982;2023-04-07T01:54:06;5.00;;;3.47;;
74677;SDS011;67324;56.326;43.982;2023-04-07T01:56:33;4.38;;;3.35;;
74677;SDS011;67324;56.326;43.982;2023-04-07T02:02:02;4.82;;;2.92;;
74677;SDS011;67324;56.326;43.982;2023-04-07T02:04:39;3.88;;;3.30;;
74677;SDS011;67324;56.326;43.982;2023-04-07T02:07:44;4.28;;;3.33;;
74677;SDS011;67324;56.326;43.982;2023-04-07T02:10:12;3.45;;;3.00;;
74677;SDS011;67324;56.326;43.982;2023-04-07T02:12:40;4.03;;;3.10;;
74677;SDS011;67324;56.326;43.982;2023-04-07T02:15:13;4.57;;;3.20;;
74677;SDS011;67324;56.326;43.982;2023-04-07T02:17:42;4.72;;;3.28;;
74677;SDS011;67324;56.326;43.982;2023-04-07T02:20:13;5.43;;;3.63;;
74677;SDS011;67324;56.326;43.982;2023-04-07T02:22:41;3.88;;;3.28;;
74677;SDS011;67324;56.326;43.982;2023-04-07T02:25:24;4.20;;;3.10;;
74677;SDS011;67324;56.326;43.982;2023-04-07T02:27:53;4.32;;;3.25;;
74677;SDS011;67324;56.326;43.982;2023-04-07T02:30:19;5.50;;;3.80;;
74677;SDS011;67324;56.326;43.982;2023-04-07T02:32:45;4.90;;;3.22;;
74677;SDS011;67324;56.326;43.982;2023-04-07T02:35:13;5.30;;;3.35;;
74677;SDS011;67324;56.326;43.982;2023-04-07T02:37:40;4.03;;;3.17;;
74677;SDS011;67324;56.326;43.982;2023-04-07T02:40:06;3.80;;;2.90;;
74677;SDS011;67324;56.326;43.982;2023-04-07T02:42:33;4.05;;;3.10;;
74677;SDS011;67324;56.326;43.982;2023-04-07T02:45:01;3.88;;;2.90;;
74677;SDS011;67324;56.326;43.982;2023-04-07T02:47:28;3.45;;;3.03;;
74677;SDS011;67324;56.326;43.982;2023-04-07T02:49:53;4.10;;;3.05;;
74677;SDS011;67324;56.326;43.982;2023-04-07T02:52:19;4.45;;;3.10;;
74677;SDS011;67324;56.326;43.982;2023-04-07T02:54:45;4.45;;;3.03;;
74677;SDS011;67324;56.326;43.982;2023-04-07T02:57:11;3.92;;;3.10;;
74677;SDS011;67324;56.326;43.982;2023-04-07T02:59:38;4.60;;;3.35;;
74677;SDS011;67324;56.326;43.982;2023-04-07T03:02:06;4.13;;;3.08;;
74677;SDS011;67324;56.326;43.982;2023-04-07T03:04:33;4.10;;;3.08;;
74677;SDS011;67324;56.326;43.982;2023-04-07T03:06:59;4.07;;;3.28;;
74677;SDS011;67324;56.326;43.982;2023-04-07T03:09:27;4.10;;;2.95;;
74677;SDS011;67324;56.326;43.982;2023-04-07T03:11:54;4.10;;;3.33;;
74677;SDS011;67324;56.326;43.982;2023-04-07T03:14:21;3.65;;;3.03;;
74677;SDS011;67324;56.326;43.982;2023-04-07T03:16:48;4.25;;;2.97;;
74677;SDS011;67324;56.326;43.982;2023-04-07T03:19:15;4.10;;;3.15;;
74677;SDS011;67324;56.326;43.982;2023-04-07T03:21:44;3.67;;;2.95;;
74677;SDS011;67324;56.326;43.982;2023-04-07T03:24:10;3.63;;;2.83;;
74677;SDS011;67324;56.326;43.982;2023-04-07T03:26:35;4.45;;;3.03;;
74677;SDS011;67324;56.326;43.982;2023-04-07T03:29:04;4.05;;;3.00;;
74677;SDS011;67324;56.326;43.982;2023-04-07T03:31:30;4.88;;;3.20;;
74677;SDS011;67324;56.326;43.982;2023-04-07T03:33:56;3.30;;;2.95;;
74677;SDS011;67324;56.326;43.982;2023-04-07T03:36:22;4.55;;;2.90;;
74677;SDS011;67324;56.326;43.982;2023-04-07T03:38:49;3.55;;;2.85;;
74677;SDS011;67324;56.326;43.982;2023-04-07T03:41:17;4.53;;;3.00;;
74677;SDS011;67324;56.326;43.982;2023-04-07T03:43:42;4.00;;;2.95;;
74677;SDS011;67324;56.326;43.982;2023-04-07T03:46:27;4.88;;;3.05;;
74677;SDS011;67324;56.326;43.982;2023-04-07T03:48:53;3.33;;;2.95;;
74677;SDS011;67324;56.326;43.982;2023-04-07T03:51:20;3.88;;;3.00;;
74677;SDS011;67324;56.326;43.982;2023-04-07T03:53:51;4.30;;;2.83;;
74677;SDS011;67324;56.326;43.982;2023-04-07T03:56:34;4.05;;;2.58;;
74677;SDS011;67324;56.326;43.982;2023-04-07T03:59:00;4.38;;;2.80;;
74677;SDS011;67324;56.326;43.982;2023-04-07T04:01:30;4.18;;;2.70;;
74677;SDS011;67324;56.326;43.982;2023-04-07T04:04:02;3.85;;;2.90;;
74677;SDS011;67324;56.326;43.982;2023-04-07T04:06:29;3.72;;;2.90;;
74677;SDS011;67324;56.326;43.982;2023-04-07T04:09:04;3.40;;;2.70;;
74677;SDS011;67324;56.326;43.982;2023-04-07T04:11:33;4.10;;;3.10;;
74677;SDS011;67324;56.326;43.982;2023-04-07T04:14:02;3.58;;;2.90;;
74677;SDS011;67324;56.326;43.982;2023-04-07T04:16:28;4.95;;;3.05;;
74677;SDS011;67324;56.326;43.982;2023-04-07T04:19:00;3.42;;;2.80;;
74677;SDS011;67324;56.326;43.982;2023-04-07T04:21:28;4.38;;;2.80;;
74677;SDS011;67324;56.326;43.982;2023-04-07T04:23:55;3.63;;;2.90;;
74677;SDS011;67324;56.326;43.982;2023-04-07T04:26:21;4.00;;;2.95;;
74677;SDS011;67324;56.326;43.982;2023-04-07T04:28:51;3.35;;;2.67;;
74677;SDS011;67324;56.326;43.982;2023-04-07T04:31:19;3.75;;;2.75;;
74677;SDS011;67324;56.326;43.982;2023-04-07T04:33:46;3.30;;;2.70;;
74677;SDS011;67324;56.326;43.982;2023-04-07T04:36:11;3.13;;;2.50;;
74677;SDS011;67324;56.326;43.982;2023-04-07T04:38:38;3.50;;;2.72;;
74677;SDS011;67324;56.326;43.982;2023-04-07T04:41:14;3.92;;;2.85;;
74677;SDS011;67324;56.326;43.982;2023-04-07T04:43:41;3.88;;;2.83;;
74677;SDS011;67324;56.326;43.982;2023-04-07T04:48:52;3.45;;;2.60;;
74677;SDS011;67324;56.326;43.982;2023-04-07T04:51:19;3.08;;;2.63;;
74677;SDS011;67324;56.326;43.982;2023-04-07T04:53:50;3.17;;;2.70;;
74677;SDS011;67324;56.326;43.982;2023-04-07T04:56:17;3.17;;;2.67;;
74677;SDS011;67324;56.326;43.982;2023-04-07T04:58:45;2.90;;;2.20;;
74677;SDS011;67324;56.326;43.982;2023-04-07T05:01:18;3.38;;;2.58;;
74677;SDS011;67324;56.326;43.982;2023-04-07T05:03:51;3.15;;;2.50;;
74677;SDS011;67324;56.326;43.982;2023-04-07T05:06:36;3.28;;;2.60;;
74677;SDS011;67324;56.326;43.982;2023-04-07T05:09:20;3.80;;;2.90;;
74677;SDS011;67324;56.326;43.982;2023-04-07T05:11:47;3.70;;;2.60;;
74677;SDS011;67324;56.326;43.982;2023-04-07T05:14:13;3.20;;;2.80;;
74677;SDS011;67324;56.326;43.982;2023-04-07T05:16:45;3.33;;;2.63;;
74677;SDS011;67324;56.326;43.982;2023-04-07T05:19:16;3.13;;;2.50;;
74677;SDS011;67324;56.326;43.982;2023-04-07T05:21:43;3.50;;;2.72;;
74677;SDS011;67324;56.326;43.982;2023-04-07T05:24:09;3.20;;;2.53;;
74677;SDS011;67324;56.326;43.982;2023-04-07T05:26:36;2.92;;;2.38;;
74677;SDS011;67324;56.326;43.982;2023-04-07T05:29:03;3.65;;;2.80;;
74677;SDS011;67324;56.326;43.982;2023-04-07T05:31:29;2.88;;;2.35;;
74677;SDS011;67324;56.326;43.982;2023-04-07T05:33:57;3.30;;;2.53;;
74677;SDS011;67324;56.326;43.982;2023-04-07T05:36:26;3.55;;;2.50;;
74677;SDS011;67324;56.326;43.982;2023-04-07T05:38:55;3.83;;;2.60;;
74677;SDS011;67324;56.326;43.982;2023-04-07T05:41:21;2.85;;;2.40;;
74677;SDS011;67324;56.326;43.982;2023-04-07T05:43:46;3.67;;;2.80;;
74677;SDS011;67324;56.326;43.982;2023-04-07T05:46:14;2.83;;;2.30;;
74677;SDS011;67324;56.326;43.982;2023-04-07T05:48:49;3.90;;;2.78;;
74677;SDS011;67324;56.326;43.982;2023-04-07T05:51:16;4.88;;;2.78;;
74677;SDS011;67324;56.326;43.982;2023-04-07T05:53:42;2.60;;;2.40;;
74677;SDS011;67324;56.326;43.982;2023-04-07T05:58:53;2.75;;;2.40;;
74677;SDS011;67324;56.326;43.982;2023-04-07T06:01:19;3.25;;;2.40;;
74677;SDS011;67324;56.326;43.982;2023-04-07T06:03:46;3.55;;;2.42;;
74677;SDS011;67324;56.326;43.982;2023-04-07T06:06:19;2.97;;;2.50;;
74677;SDS011;67324;56.326;43.982;2023-04-07T06:08:45;3.60;;;2.28;;
74677;SDS011;67324;56.326;43.982;2023-04-07T06:11:11;3.17;;;2.40;;
74677;SDS011;67324;56.326;43.982;2023-04-07T06:13:37;3.05;;;2.33;;
74677;SDS011;67324;56.326;43.982;2023-04-07T06:16:03;3.40;;;2.17;;
74677;SDS011;67324;56.326;43.982;2023-04-07T06:18:30;3.75;;;2.50;;
74677;SDS011;67324;56.326;43.982;2023-04-07T06:20:57;3.45;;;2.20;;
74677;SDS011;67324;56.326;43.982;2023-04-07T06:23:24;3.28;;;2.53;;
74677;SDS011;67324;56.326;43.982;2023-04-07T06:25:50;4.03;;;2.58;;
74677;SDS011;67324;56.326;43.982;2023-04-07T06:28:35;3.28;;;2.50;;
74677;SDS011;67324;56.326;43.982;2023-04-07T06:31:02;4.07;;;2.65;;
74677;SDS011;67324;56.326;43.982;2023-04-07T06:33:46;3.22;;;2.30;;
74677;SDS011;67324;56.326;43.982;2023-04-07T06:36:12;3.00;;;2.40;;
74677;SDS011;67324;56.326;43.982;2023-04-07T06:38:38;3.33;;;2.28;;
74677;SDS011;67324;56.326;43.982;2023-04-07T06:41:04;3.10;;;2.50;;
74677;SDS011;67324;56.326;43.982;2023-04-07T06:43:30;3.15;;;2.35;;
74677;SDS011;67324;56.326;43.982;2023-04-07T06:46:00;3.15;;;2.42;;
74677;SDS011;67324;56.326;43.982;2023-04-07T06:48:26;3.40;;;2.28;;
74677;SDS011;67324;56.326;43.982;2023-04-07T06:50:52;2.75;;;1.95;;
74677;SDS011;67324;56.326;43.982;2023-04-07T06:53:18;3.45;;;2.35;;
74677;SDS011;67324;56.326;43.982;2023-04-07T06:55:43;2.90;;;2.33;;
74677;SDS011;67324;56.326;43.982;2023-04-07T06:58:09;3.20;;;2.40;;
74677;SDS011;67324;56.326;43.982;2023-04-07T07:00:35;2.88;;;2.22;;
74677;SDS011;67324;56.326;43.982;2023-04-07T07:03:01;3.00;;;2.30;;
74677;SDS011;67324;56.326;43.982;2023-04-07T07:05:27;3.17;;;2.47;;
74677;SDS011;67324;56.326;43.982;2023-04-07T07:07:53;3.35;;;2.25;;
74677;SDS011;67324;56.326;43.982;2023-04-07T07:10:19;2.95;;;2.40;;
74677;SDS011;67324;56.326;43.982;2023-04-07T07:13:05;3.65;;;2.35;;
74677;SDS011;67324;56.326;43.982;2023-04-07T07:15:31;3.47;;;2.38;;
74677;SDS011;67324;56.326;43.982;2023-04-07T07:17:57;2.78;;;2.30;;
74677;SDS011;67324;56.326;43.982;2023-04-07T07:20:23;2.85;;;2.20;;
74677;SDS011;67324;56.326;43.982;2023-04-07T07:22:50;2.97;;;2.22;;
74677;SDS011;67324;56.326;43.982;2023-04-07T07:25:16;3.28;;;2.20;;
74677;SDS011;67324;56.326;43.982;2023-04-07T07:27:41;3.63;;;2.38;;
74677;SDS011;67324;56.326;43.982;2023-04-07T07:30:07;2.13;;;1.80;;
74677;SDS011;67324;56.326;43.982;2023-04-07T07:32:52;2.97;;;2.40;;
74677;SDS011;67324;56.326;43.982;2023-04-07T07:35:19;2.40;;;2.15;;
74677;SDS011;67324;56.326;43.982;2023-04-07T07:37:46;3.47;;;2.63;;
74677;SDS011;67324;56.326;43.982;2023-04-07T07:40:12;2.95;;;2.17;;
74677;SDS011;67324;56.326;43.982;2023-04-07T07:42:38;3.33;;;2.40;;
74677;SDS011;67324;56.326;43.982;2023-04-07T07:45:04;2.50;;;2.10;;
74677;SDS011;67324;56.326;43.982;2023-04-07T07:47:30;3.00;;;2.30;;
74677;SDS011;67324;56.326;43.982;2023-04-07T07:49:56;3.55;;;2.30;;
74677;SDS011;67324;56.326;43.982;2023-04-07T07:52:22;3.10;;;2.33;;
74677;SDS011;67324;56.326;43.982;2023-04-07T07:54:48;3.13;;;2.30;;
74677;SDS011;67324;56.326;43.982;2023-04-07T07:57:14;3.05;;;2.25;;
74677;SDS011;67324;56.326;43.982;2023-04-07T07:59:40;3.15;;;2.40;;
74677;SDS011;67324;56.326;43.982;2023-04-07T08:02:06;3.97;;;2.55;;
74677;SDS011;67324;56.326;43.982;2023-04-07T08:04:33;3.50;;;2.35;;
74677;SDS011;67324;56.326;43.982;2023-04-07T08:06:59;3.35;;;2.20;;
74677;SDS011;67324;56.326;43.982;2023-04-07T08:09:25;4.35;;;2.47;;
74677;SDS011;67324;56.326;43.982;2023-04-07T08:11:51;3.03;;;2.25;;
74677;SDS011;67324;56.326;43.982;2023-04-07T08:14:17;3.53;;;2.20;;
74677;SDS011;67324;56.326;43.982;2023-04-07T08:16:43;3.70;;;2.20;;
74677;SDS011;67324;56.326;43.982;2023-04-07T08:19:09;3.72;;;2.05;;
74677;SDS011;67324;56.326;43.982;2023-04-07T08:21:36;3.35;;;2.10;;
74677;SDS011;67324;56.326;43.982;2023-04-07T08:24:02;2.67;;;2.17;;
74677;SDS011;67324;56.326;43.982;2023-04-07T08:26:28;2.58;;;1.95;;
74677;SDS011;67324;56.326;43.982;2023-04-07T08:28:53;2.55;;;2.08;;
74677;SDS011;67324;56.326;43.982;2023-04-07T08:31:20;3.72;;;2.50;;
74677;SDS011;67324;56.326;43.982;2023-04-07T08:33:46;2.95;;;2.00;;
74677;SDS011;67324;56.326;43.982;2023-04-07T08:36:12;2.95;;;2.10;;
74677;SDS011;67324;56.326;43.982;2023-04-07T08:38:38;3.03;;;2.20;;
74677;SDS011;67324;56.326;43.982;2023-04-07T08:41:06;2.50;;;1.83;;
74677;SDS011;67324;56.326;43.982;2023-04-07T08:43:35;2.15;;;1.92;;
74677;SDS011;67324;56.326;43.982;2023-04-07T08:46:03;2.72;;;2.10;;
74677;SDS011;67324;56.326;43.982;2023-04-07T08:48:30;2.85;;;2.05;;
74677;SDS011;67324;56.326;43.982;2023-04-07T08:51:06;2.70;;;2.00;;
74677;SDS011;67324;56.326;43.982;2023-04-07T08:53:35;2.83;;;2.00;;
74677;SDS011;67324;56.326;43.982;2023-04-07T08:56:10;3.00;;;1.83;;
74677;SDS011;67324;56.326;43.982;2023-04-07T08:58:37;2.92;;;2.30;;
74677;SDS011;67324;56.326;43.982;2023-04-07T09:01:04;2.20;;;1.90;;
74677;SDS011;67324;56.326;43.982;2023-04-07T09:03:33;2.20;;;1.80;;
74677;SDS011;67324;56.326;43.982;2023-04-07T09:05:59;2.53;;;1.83;;
74677;SDS011;67324;56.326;43.982;2023-04-07T09:08:26;2.95;;;2.10;;
74677;SDS011;67324;56.326;43.982;2023-04-07T09:10:52;2.45;;;1.95;;
74677;SDS011;67324;56.326;43.982;2023-04-07T09:13:19;2.40;;;1.75;;
74677;SDS011;67324;56.326;43.982;2023-04-07T09:15:45;2.47;;;1.88;;
74677;SDS011;67324;56.326;43.982;2023-04-07T09:18:11;2.97;;;2.10;;
74677;SDS011;67324;56.326;43.982;2023-04-07T09:23:30;2.80;;;2.00;;
74677;SDS011;67324;56.326;43.982;2023-04-07T09:25:58;2.53;;;1.95;;
74677;SDS011;67324;56.326;43.982;2023-04-07T09:28:37;2.88;;;2.00;;
74677;SDS011;67324;56.326;43.982;2023-04-07T09:31:05;3.08;;;2.05;;
74677;SDS011;67324;56.326;43.982;2023-04-07T09:33:32;3.03;;;1.92;;
74677;SDS011;67324;56.326;43.982;2023-04-07T09:36:00;3.17;;;1.90;;
74677;SDS011;67324;56.326;43.982;2023-04-07T09:38:35;6.47;;;1.90;;
74677;SDS011;67324;56.326;43.982;2023-04-07T09:41:06;3.20;;;1.73;;
74677;SDS011;67324;56.326;43.982;2023-04-07T09:43:33;4.53;;;1.58;;
74677;SDS011;67324;56.326;43.982;2023-04-07T09:48:37;2.50;;;1.38;;
74677;SDS011;67324;56.326;43.982;2023-04-07T09:51:22;2.35;;;1.20;;
74677;SDS011;67324;56.326;43.982;2023-04-07T09:53:49;2.47;;;1.35;;
74677;SDS011;67324;56.326;43.982;2023-04-07T09:56:16;2.63;;;1.35;;
74677;SDS011;67324;56.326;43.982;2023-04-07T09:58:49;2.53;;;1.50;;
74677;SDS011;67324;56.326;43.982;2023-04-07T10:01:19;2.20;;;1.30;;
74677;SDS011;67324;56.326;43.982;2023-04-07T10:03:46;4.15;;;1.55;;
74677;SDS011;67324;56.326;43.982;2023-04-07T10:06:13;2.45;;;1.30;;
74677;SDS011;67324;56.326;43.982;2023-04-07T10:08:41;3.95;;;1.60;;
74677;SDS011;67324;56.326;43.982;2023-04-07T10:11:08;3.42;;;1.48;;
74677;SDS011;67324;56.326;43.982;2023-04-07T10:13:35;1.83;;;1.25;;
74677;SDS011;67324;56.326;43.982;2023-04-07T10:16:04;2.97;;;1.33;;
74677;SDS011;67324;56.326;43.982;2023-04-07T10:18:33;2.80;;;1.58;;
74677;SDS011;67324;56.326;43.982;2023-04-07T10:21:01;2.20;;;1.40;;
74677;SDS011;67324;56.326;43.982;2023-04-07T10:26:14;4.13;;;1.55;;
74677;SDS011;67324;56.326;43.982;2023-04-07T10:28:44;2.72;;;1.40;;
74677;SDS011;67324;56.326;43.982;2023-04-07T10:31:13;2.70;;;1.50;;
74677;SDS011;67324;56.326;43.982;2023-04-07T10:33:59;2.00;;;1.40;;
74677;SDS011;67324;56.326;43.982;2023-04-07T10:36:25;2.60;;;1.50;;
74677;SDS011;67324;56.326;43.982;2023-04-07T10:41:37;2.33;;;1.35;;
74677;SDS011;67324;56.326;43.982;2023-04-07T10:44:05;3.83;;;1.70;;
74677;SDS011;67324;56.326;43.982;2023-04-07T10:47:05;2.00;;;1.27;;
74677;SDS011;67324;56.326;43.982;2023-04-07T10:49:29;3.53;;;1.40;;
74677;SDS011;67324;56.326;43.982;2023-04-07T10:52:20;2.67;;;1.40;;
74677;SDS011;67324;56.326;43.982;2023-04-07T10:54:47;5.78;;;1.67;;
74677;SDS011;67324;56.326;43.982;2023-04-07T11:03:25;3.22;;;1.50;;
74677;SDS011;67324;56.326;43.982;2023-04-07T11:05:52;4.72;;;1.80;;
74677;SDS011;67324;56.326;43.982;2023-04-07T11:08:33;4.80;;;1.67;;
74677;SDS011;67324;56.326;43.982;2023-04-07T11:11:00;4.63;;;1.55;;
74677;SDS011;67324;56.326;43.982;2023-04-07T11:13:27;3.25;;;1.48;;
74677;SDS011;67324;56.326;43.982;2023-04-07T11:15:52;3.72;;;1.80;;
74677;SDS011;67324;56.326;43.982;2023-04-07T11:18:38;5.20;;;1.65;;
74677;SDS011;67324;56.326;43.982;2023-04-07T11:21:04;2.63;;;1.55;;
74677;SDS011;67324;56.326;43.982;2023-04-07T11:24:04;3.72;;;1.70;;
74677;SDS011;67324;56.326;43.982;2023-04-07T11:26:23;4.20;;;1.50;;
74677;SDS011;67324;56.326;43.982;2023-04-07T11:28:50;1.67;;;1.42;;
74677;SDS011;67324;56.326;43.982;2023-04-07T11:31:20;3.35;;;1.67;;
74677;SDS011;67324;56.326;43.982;2023-04-07T11:33:50;3.72;;;1.52;;
74677;SDS011;67324;56.326;43.982;2023-04-07T11:36:25;2.28;;;1.60;;
74677;SDS011;67324;56.326;43.982;2023-04-07T11:38:55;3.17;;;1.45;;
74677;SDS011;67324;56.326;43.982;2023-04-07T11:41:22;5.35;;;2.25;;
74677;SDS011;67324;56.326;43.982;2023-04-07T11:44:02;3.10;;;1.52;;
74677;SDS011;67324;56.326;43.982;2023-04-07T11:46:58;3.85;;;1.50;;
74677;SDS011;67324;56.326;43.982;2023-04-07T11:49:25;1.98;;;1.42;;
74677;SDS011;67324;56.326;43.982;2023-04-07T11:52:02;2.95;;;1.63;;
74677;SDS011;67324;56.326;43.982;2023-04-07T11:54:43;3.05;;;1.60;;
74677;SDS011;67324;56.326;43.982;2023-04-07T11:57:11;3.28;;;1.50;;
74677;SDS011;67324;56.326;43.982;2023-04-07T11:59:38;4.35;;;1.55;;
74677;SDS011;67324;56.326;43.982;2023-04-07T12:02:06;4.10;;;1.40;;
74677;SDS011;67324;56.326;43.982;2023-04-07T12:04:32;2.00;;;1.45;;
74677;SDS011;67324;56.326;43.982;2023-04-07T12:07:08;2.97;;;1.50;;
74677;SDS011;67324;56.326;43.982;2023-04-07T12:09:35;2.75;;;1.52;;
74677;SDS011;67324;56.326;43.982;2023-04-07T12:12:05;2.28;;;1.38;;
74677;SDS011;67324;56.326;43.982;2023-04-07T12:14:33;2.92;;;1.65;;
74677;SDS011;67324;56.326;43.982;2023-04-07T12:16:59;3.15;;;1.55;;
74677;SDS011;67324;56.326;43.982;2023-04-07T12:19:28;4.07;;;1.70;;
74677;SDS011;67324;56.326;43.982;2023-04-07T12:21:55;3.95;;;1.58;;
74677;SDS011;67324;56.326;43.982;2023-04-07T12:24:21;3.33;;;1.27;;
74677;SDS011;67324;56.326;43.982;2023-04-07T12:26:48;2.63;;;1.52;;
74677;SDS011;67324;56.326;43.982;2023-04-07T12:32:17;5.03;;;1.53;;
74677;SDS011;67324;56.326;43.982;2023-04-07T12:34:43;2.78;;;1.50;;
74677;SDS011;67324;56.326;43.982;2023-04-07T12:37:09;2.90;;;1.75;;
74677;SDS011;67324;56.326;43.982;2023-04-07T12:39:35;3.83;;;1.60;;
74677;SDS011;67324;56.326;43.982;2023-04-07T12:42:01;3.65;;;1.58;;
74677;SDS011;67324;56.326;43.982;2023-04-07T12:44:27;2.55;;;1.40;;
74677;SDS011;67324;56.326;43.982;2023-04-07T12:46:52;3.38;;;1.55;;
74677;SDS011;67324;56.326;43.982;2023-04-07T12:49:18;2.88;;;1.20;;
74677;SDS011;67324;56.326;43.982;2023-04-07T12:51:44;3.60;;;1.60;;
74677;SDS011;67324;56.326;43.982;2023-04-07T12:54:10;4.07;;;1.92;;
74677;SDS011;67324;56.326;43.982;2023-04-07T12:56:36;3.72;;;1.67;;
74677;SDS011;67324;56.326;43.982;2023-04-07T12:59:02;3.78;;;1.50;;
74677;SDS011;67324;56.326;43.982;2023-04-07T13:01:28;3.15;;;1.70;;
74677;SDS011;67324;56.326;43.982;2023-04-07T13:03:54;5.15;;;1.83;;
74677;SDS011;67324;56.326;43.982;2023-04-07T13:06:20;3.40;;;1.65;;
74677;SDS011;67324;56.326;43.982;2023-04-07T13:09:05;5.03;;;2.15;;
74677;SDS011;67324;56.326;43.982;2023-04-07T13:11:31;4.90;;;2.08;;
74677;SDS011;67324;56.326;43.982;2023-04-07T13:13:57;5.13;;;2.63;;
74677;SDS011;67324;56.326;43.982;2023-04-07T13:16:23;4.97;;;2.53;;
74677;SDS011;67324;56.326;43.982;2023-04-07T13:18:48;3.00;;;2.33;;
74677;SDS011;67324;56.326;43.982;2023-04-07T13:21:15;5.15;;;2.20;;
74677;SDS011;67324;56.326;43.982;2023-04-07T13:23:41;5.10;;;2.20;;
74677;SDS011;67324;56.326;43.982;2023-04-07T13:26:07;3.13;;;2.05;;
74677;SDS011;67324;56.326;43.982;2023-04-07T13:28:33;4.00;;;2.63;;
74677;SDS011;67324;56.326;43.982;2023-04-07T13:30:59;4.63;;;2.65;;
74677;SDS011;67324;56.326;43.982;2023-04-07T13:33:25;5.75;;;3.00;;
74677;SDS011;67324;56.326;43.982;2023-04-07T13:35:51;3.78;;;2.40;;
74677;SDS011;67324;56.326;43.982;2023-04-07T13:38:17;4.50;;;2.80;;
74677;SDS011;67324;56.326;43.982;2023-04-07T13:40:43;5.90;;;3.50;;
74677;SDS011;67324;56.326;43.982;2023-04-07T13:43:09;4.03;;;2.67;;
74677;SDS011;67324;56.326;43.982;2023-04-07T13:45:36;4.20;;;2.85;;
74677;SDS011;67324;56.326;43.982;2023-04-07T13:48:21;5.47;;;2.92;;
74677;SDS011;67324;56.326;43.982;2023-04-07T13:50:46;5.25;;;2.72;;
74677;SDS011;67324;56.326;43.982;2023-04-07T13:53:12;4.82;;;2.58;;
74677;SDS011;67324;56.326;43.982;2023-04-07T13:55:38;7.25;;;2.70;;
74677;SDS011;67324;56.326;43.982;2023-04-07T13:58:05;8.52;;;4.18;;
74677;SDS011;67324;56.326;43.982;2023-04-07T14:00:31;8.15;;;3.30;;
74677;SDS011;67324;56.326;43.982;2023-04-07T14:02:59;5.03;;;3.05;;
74677;SDS011;67324;56.326;43.982;2023-04-07T14:05:25;5.40;;;2.92;;
74677;SDS011;67324;56.326;43.982;2023-04-07T14:07:51;6.10;;;2.75;;
74677;SDS011;67324;56.326;43.982;2023-04-07T14:10:18;4.68;;;2.67;;
74677;SDS011;67324;56.326;43.982;2023-04-07T14:12:44;4.43;;;2.40;;
74677;SDS011;67324;56.326;43.982;2023-04-07T14:15:10;6.82;;;2.58;;
74677;SDS011;67324;56.326;43.982;2023-04-07T14:17:36;6.22;;;2.38;;
74677;SDS011;67324;56.326;43.982;2023-04-07T14:20:02;3.58;;;2.33;;
74677;SDS011;67324;56.326;43.982;2023-04-07T14:22:28;5.82;;;2.42;;
74677;SDS011;67324;56.326;43.982;2023-04-07T14:25:13;5.28;;;2.20;;
74677;SDS011;67324;56.326;43.982;2023-04-07T14:27:39;3.30;;;1.85;;
74677;SDS011;67324;56.326;43.982;2023-04-07T14:30:05;3.03;;;1.83;;
74677;SDS011;67324;56.326;43.982;2023-04-07T14:32:32;4.13;;;2.10;;
74677;SDS011;67324;56.326;43.982;2023-04-07T14:34:58;5.18;;;2.00;;
74677;SDS011;67324;56.326;43.982;2023-04-07T14:37:24;2.92;;;1.77;;
74677;SDS011;67324;56.326;43.982;2023-04-07T14:39:51;4.90;;;1.70;;
74677;SDS011;67324;56.326;43.982;2023-04-07T14:42:17;3.42;;;2.00;;
74677;SDS011;67324;56.326;43.982;2023-04-07T14:44:43;3.17;;;1.70;;
74677;SDS011;67324;56.326;43.982;2023-04-07T14:47:09;5.47;;;2.00;;
74677;SDS011;67324;56.326;43.982;2023-04-07T14:49:35;4.13;;;2.17;;
74677;SDS011;67324;56.326;43.982;2023-04-07T14:52:01;6.50;;;2.33;;
74677;SDS011;67324;56.326;43.982;2023-04-07T14:54:27;3.50;;;1.92;;
74677;SDS011;67324;56.326;43.982;2023-04-07T14:56:54;6.72;;;2.13;;
74677;SDS011;67324;56.326;43.982;2023-04-07T14:59:19;4.00;;;2.13;;
74677;SDS011;67324;56.326;43.982;2023-04-07T15:01:45;4.82;;;3.10;;
74677;SDS011;67324;56.326;43.982;2023-04-07T15:04:11;6.35;;;3.30;;
74677;SDS011;67324;56.326;43.982;2023-04-07T15:06:40;11.80;;;3.42;;
74677;SDS011;67324;56.326;43.982;2023-04-07T15:09:08;6.78;;;2.70;;
74677;SDS011;67324;56.326;43.982;2023-04-07T15:11:34;5.10;;;3.10;;
74677;SDS011;67324;56.326;43.982;2023-04-07T15:14:00;6.85;;;3.03;;
74677;SDS011;67324;56.326;43.982;2023-04-07T15:16:25;6.78;;;3.30;;